sensor_id;sensor_type;location;lat;lon;timestamp;P1;durP1;ratioP1;P2;durP2;ratioP2
4808;SDS011;2418;49.930;8.606;2022-09-06T00:01:25;3.38;;;2.78;;
4808;SDS011;2418;49.930;8.606;2022-09-06T00:03:51;3.60;;;3.30;;
4808;SDS011;2418;49.930;8.606;2022-09-06T00:06:18;10.50;;;3.33;;
4808;SDS011;2418;49.930;8.606;2022-09-06T00:08:45;3.60;;;3.40;;
4808;SDS011;2418;49.930;8.606;2022-09-06T00:11:12;3.72;;;3.53;;
4808;SDS011;2418;49.930;8.606;2022-09-06T00:13:38;5.07;;;3.50;;
4808;SDS011;2418;49.930;8.606;2022-09-06T00:16:08;3.60;;;3.30;;
4808;SDS011;2418;49.930;8.606;2022-09-06T00:18:34;3.55;;;3.25;;
4808;SDS011;2418;49.930;8.606;2022-09-06T00:21:01;6.43;;;3.47;;
4808;SDS011;2418;49.930;8.606;2022-09-06T00:23:27;3.92;;;3.35;;
4808;SDS011;2418;49.930;8.606;2022-09-06T00:26:00;7.18;;;3.50;;
4808;SDS011;2418;49.930;8.606;2022-09-06T00:28:26;4.38;;;3.35;;
4808;SDS011;2418;49.930;8.606;2022-09-06T00:30:52;3.50;;;3.30;;
4808;SDS011;2418;49.930;8.606;2022-09-06T00:33:18;4.00;;;3.20;;
4808;SDS011;2418;49.930;8.606;2022-09-06T00:35:44;5.20;;;3.40;;
4808;SDS011;2418;49.930;8.606;2022-09-06T00:38:11;2.75;;;2.53;;
4808;SDS011;2418;49.930;8.606;2022-09-06T00:40:37;3.37;;;3.17;;
4808;SDS011;2418;49.930;8.606;2022-09-06T00:43:03;3.63;;;2.80;;
4808;SDS011;2418;49.930;8.606;2022-09-06T00:45:29;5.10;;;3.15;;
4808;SDS011;2418;49.930;8.606;2022-09-06T00:47:56;2.63;;;2.42;;
4808;SDS011;2418;49.930;8.606;2022-09-06T00:50:23;4.40;;;2.90;;
4808;SDS011;2418;49.930;8.606;2022-09-06T00:52:49;3.17;;;2.97;;
4808;SDS011;2418;49.930;8.606;2022-09-06T00:55:16;3.35;;;3.10;;
4808;SDS011;2418;49.930;8.606;2022-09-06T00:57:42;3.25;;;2.90;;
4808;SDS011;2418;49.930;8.606;2022-09-06T01:00:10;3.50;;;3.20;;
4808;SDS011;2418;49.930;8.606;2022-09-06T01:02:36;3.65;;;3.50;;
4808;SDS011;2418;49.930;8.606;2022-09-06T01:05:03;3.80;;;3.13;;
4808;SDS011;2418;49.930;8.606;2022-09-06T01:07:44;4.03;;;2.90;;
4808;SDS011;2418;49.930;8.606;2022-09-06T01:13:03;3.72;;;3.42;;
4808;SDS011;2418;49.930;8.606;2022-09-06T01:15:34;3.08;;;2.97;;
4808;SDS011;2418;49.930;8.606;2022-09-06T01:20:40;3.10;;;2.90;;
4808;SDS011;2418;49.930;8.606;2022-09-06T01:25:58;3.67;;;3.38;;
4808;SDS011;2418;49.930;8.606;2022-09-06T01:28:29;3.60;;;3.40;;
4808;SDS011;2418;49.930;8.606;2022-09-06T01:30:59;3.20;;;3.10;;
4808;SDS011;2418;49.930;8.606;2022-09-06T01:33:31;3.60;;;3.33;;
4808;SDS011;2418;49.930;8.606;2022-09-06T01:36:02;3.43;;;3.33;;
4808;SDS011;2418;49.930;8.606;2022-09-06T01:38:29;4.07;;;3.67;;
4808;SDS011;2418;49.930;8.606;2022-09-06T01:40:55;3.80;;;3.50;;
4808;SDS011;2418;49.930;8.606;2022-09-06T01:43:29;3.75;;;3.20;;
4808;SDS011;2418;49.930;8.606;2022-09-06T01:48:32;3.33;;;3.23;;
4808;SDS011;2418;49.930;8.606;2022-09-06T01:51:06;4.60;;;4.00;;
4808;SDS011;2418;49.930;8.606;2022-09-06T01:53:43;3.90;;;3.70;;
4808;SDS011;2418;49.930;8.606;2022-09-06T01:56:31;5.72;;;3.50;;
4808;SDS011;2418;49.930;8.606;2022-09-06T02:01:37;4.10;;;3.70;;
4808;SDS011;2418;49.930;8.606;2022-09-06T02:04:21;3.90;;;3.30;;
4808;SDS011;2418;49.930;8.606;2022-09-06T02:06:52;7.57;;;3.30;;
4808;SDS011;2418;49.930;8.606;2022-09-06T02:09:21;7.85;;;3.63;;
4808;SDS011;2418;49.930;8.606;2022-09-06T02:11:56;5.05;;;3.22;;
4808;SDS011;2418;49.930;8.606;2022-09-06T02:14:34;3.20;;;2.40;;
4808;SDS011;2418;49.930;8.606;2022-09-06T02:17:01;3.17;;;2.70;;
4808;SDS011;2418;49.930;8.606;2022-09-06T02:22:13;2.30;;;2.20;;
4808;SDS011;2418;49.930;8.606;2022-09-06T02:24:40;5.30;;;2.17;;
4808;SDS011;2418;49.930;8.606;2022-09-06T02:27:07;2.60;;;2.50;;
4808;SDS011;2418;49.930;8.606;2022-09-06T02:29:33;3.80;;;2.20;;
4808;SDS011;2418;49.930;8.606;2022-09-06T02:32:00;2.30;;;2.20;;
4808;SDS011;2418;49.930;8.606;2022-09-06T02:34:28;2.80;;;2.47;;
4808;SDS011;2418;49.930;8.606;2022-09-06T02:36:54;2.80;;;2.00;;
4808;SDS011;2418;49.930;8.606;2022-09-06T02:39:20;4.75;;;1.70;;
4808;SDS011;2418;49.930;8.606;2022-09-06T02:41:46;8.90;;;2.08;;
4808;SDS011;2418;49.930;8.606;2022-09-06T02:44:13;1.92;;;1.83;;
4808;SDS011;2418;49.930;8.606;2022-09-06T02:46:39;10.80;;;2.00;;
4808;SDS011;2418;49.930;8.606;2022-09-06T02:49:05;1.65;;;1.55;;
4808;SDS011;2418;49.930;8.606;2022-09-06T02:51:35;1.55;;;1.52;;
4808;SDS011;2418;49.930;8.606;2022-09-06T02:54:02;6.22;;;1.77;;
4808;SDS011;2418;49.930;8.606;2022-09-06T02:56:28;2.10;;;1.48;;
4808;SDS011;2418;49.930;8.606;2022-09-06T02:58:53;3.50;;;1.88;;
4808;SDS011;2418;49.930;8.606;2022-09-06T03:01:19;2.30;;;1.58;;
4808;SDS011;2418;49.930;8.606;2022-09-06T03:03:45;3.30;;;1.60;;
4808;SDS011;2418;49.930;8.606;2022-09-06T03:06:12;2.80;;;1.80;;
4808;SDS011;2418;49.930;8.606;2022-09-06T03:08:38;2.10;;;1.50;;
4808;SDS011;2418;49.930;8.606;2022-09-06T03:11:04;1.90;;;1.80;;
4808;SDS011;2418;49.930;8.606;2022-09-06T03:13:29;1.83;;;1.80;;
4808;SDS011;2418;49.930;8.606;2022-09-06T03:15:56;3.67;;;1.73;;
4808;SDS011;2418;49.930;8.606;2022-09-06T03:18:23;1.90;;;1.80;;
4808;SDS011;2418;49.930;8.606;2022-09-06T03:20:49;8.10;;;1.83;;
4808;SDS011;2418;49.930;8.606;2022-09-06T03:23:16;3.08;;;1.80;;
4808;SDS011;2418;49.930;8.606;2022-09-06T03:25:42;2.13;;;2.00;;
4808;SDS011;2418;49.930;8.606;2022-09-06T03:28:08;1.92;;;1.50;;
4808;SDS011;2418;49.930;8.606;2022-09-06T03:30:34;2.05;;;1.95;;
4808;SDS011;2418;49.930;8.606;2022-09-06T03:33:00;2.90;;;1.92;;
4808;SDS011;2418;49.930;8.606;2022-09-06T03:35:26;2.10;;;1.90;;
4808;SDS011;2418;49.930;8.606;2022-09-06T03:37:52;1.80;;;1.70;;
4808;SDS011;2418;49.930;8.606;2022-09-06T03:40:18;3.90;;;1.80;;
4808;SDS011;2418;49.930;8.606;2022-09-06T03:42:44;6.43;;;2.20;;
4808;SDS011;2418;49.930;8.606;2022-09-06T03:45:10;2.40;;;2.20;;
4808;SDS011;2418;49.930;8.606;2022-09-06T03:47:36;2.10;;;1.90;;
4808;SDS011;2418;49.930;8.606;2022-09-06T03:50:03;2.28;;;2.08;;
4808;SDS011;2418;49.930;8.606;2022-09-06T03:52:29;2.60;;;1.85;;
4808;SDS011;2418;49.930;8.606;2022-09-06T03:54:55;2.40;;;2.20;;
4808;SDS011;2418;49.930;8.606;2022-09-06T03:57:21;2.40;;;2.30;;
4808;SDS011;2418;49.930;8.606;2022-09-06T03:59:47;1.90;;;1.90;;
4808;SDS011;2418;49.930;8.606;2022-09-06T04:02:13;3.30;;;2.00;;
4808;SDS011;2418;49.930;8.606;2022-09-06T04:04:39;1.92;;;1.83;;
4808;SDS011;2418;49.930;8.606;2022-09-06T04:07:05;4.28;;;2.20;;
4808;SDS011;2418;49.930;8.606;2022-09-06T04:09:31;3.92;;;2.20;;
4808;SDS011;2418;49.930;8.606;2022-09-06T04:11:57;2.40;;;2.30;;
4808;SDS011;2418;49.930;8.606;2022-09-06T04:14:23;2.38;;;2.20;;
4808;SDS011;2418;49.930;8.606;2022-09-06T04:16:48;2.30;;;2.10;;
4808;SDS011;2418;49.930;8.606;2022-09-06T04:19:14;2.10;;;2.00;;
4808;SDS011;2418;49.930;8.606;2022-09-06T04:21:40;2.45;;;2.35;;
4808;SDS011;2418;49.930;8.606;2022-09-06T04:24:06;2.40;;;2.17;;
4808;SDS011;2418;49.930;8.606;2022-09-06T04:26:32;4.50;;;2.30;;
4808;SDS011;2418;49.930;8.606;2022-09-06T04:28:58;2.40;;;2.30;;
4808;SDS011;2418;49.930;8.606;2022-09-06T04:31:24;3.05;;;2.28;;
4808;SDS011;2418;49.930;8.606;2022-09-06T04:33:51;5.20;;;2.27;;
4808;SDS011;2418;49.930;8.606;2022-09-06T04:36:18;2.90;;;2.70;;
4808;SDS011;2418;49.930;8.606;2022-09-06T04:38:44;3.07;;;2.87;;
4808;SDS011;2418;49.930;8.606;2022-09-06T04:41:11;2.67;;;2.55;;
4808;SDS011;2418;49.930;8.606;2022-09-06T04:43:37;6.00;;;2.75;;
4808;SDS011;2418;49.930;8.606;2022-09-06T04:46:04;3.08;;;2.72;;
4808;SDS011;2418;49.930;8.606;2022-09-06T04:48:30;2.90;;;2.80;;
4808;SDS011;2418;49.930;8.606;2022-09-06T04:50:56;2.90;;;2.70;;
4808;SDS011;2418;49.930;8.606;2022-09-06T04:53:22;3.60;;;2.90;;
4808;SDS011;2418;49.930;8.606;2022-09-06T04:55:48;6.40;;;3.40;;
4808;SDS011;2418;49.930;8.606;2022-09-06T04:58:14;3.30;;;2.90;;
4808;SDS011;2418;49.930;8.606;2022-09-06T05:00:40;7.07;;;3.00;;
4808;SDS011;2418;49.930;8.606;2022-09-06T05:03:08;9.50;;;2.90;;
4808;SDS011;2418;49.930;8.606;2022-09-06T05:05:34;8.07;;;3.37;;
4808;SDS011;2418;49.930;8.606;2022-09-06T05:08:00;13.60;;;3.70;;
4808;SDS011;2418;49.930;8.606;2022-09-06T05:10:26;6.70;;;3.20;;
4808;SDS011;2418;49.930;8.606;2022-09-06T05:12:52;9.80;;;3.10;;
4808;SDS011;2418;49.930;8.606;2022-09-06T05:15:19;12.45;;;3.80;;
4808;SDS011;2418;49.930;8.606;2022-09-06T05:17:46;3.80;;;3.08;;
4808;SDS011;2418;49.930;8.606;2022-09-06T05:20:12;3.78;;;2.90;;
4808;SDS011;2418;49.930;8.606;2022-09-06T05:22:38;3.95;;;3.20;;
4808;SDS011;2418;49.930;8.606;2022-09-06T05:25:04;4.38;;;2.90;;
4808;SDS011;2418;49.930;8.606;2022-09-06T05:27:31;3.07;;;2.77;;
4808;SDS011;2418;49.930;8.606;2022-09-06T05:29:57;5.05;;;3.20;;
4808;SDS011;2418;49.930;8.606;2022-09-06T05:32:23;3.08;;;2.85;;
4808;SDS011;2418;49.930;8.606;2022-09-06T05:34:49;3.17;;;2.92;;
4808;SDS011;2418;49.930;8.606;2022-09-06T05:37:14;10.32;;;3.13;;
4808;SDS011;2418;49.930;8.606;2022-09-06T05:39:40;3.30;;;3.05;;
4808;SDS011;2418;49.930;8.606;2022-09-06T05:42:06;4.03;;;3.10;;
4808;SDS011;2418;49.930;8.606;2022-09-06T05:44:33;3.07;;;2.87;;
4808;SDS011;2418;49.930;8.606;2022-09-06T05:46:59;3.42;;;3.10;;
4808;SDS011;2418;49.930;8.606;2022-09-06T05:49:25;10.38;;;3.10;;
4808;SDS011;2418;49.930;8.606;2022-09-06T05:51:53;4.03;;;3.10;;
4808;SDS011;2418;49.930;8.606;2022-09-06T05:54:19;3.80;;;3.40;;
4808;SDS011;2418;49.930;8.606;2022-09-06T05:56:45;3.20;;;3.00;;
4808;SDS011;2418;49.930;8.606;2022-09-06T05:59:11;4.63;;;3.75;;
4808;SDS011;2418;49.930;8.606;2022-09-06T06:01:45;8.60;;;3.47;;
4808;SDS011;2418;49.930;8.606;2022-09-06T06:04:11;3.42;;;3.22;;
4808;SDS011;2418;49.930;8.606;2022-09-06T06:06:37;3.90;;;3.15;;
4808;SDS011;2418;49.930;8.606;2022-09-06T06:09:03;5.28;;;2.97;;
4808;SDS011;2418;49.930;8.606;2022-09-06T06:11:29;3.28;;;2.97;;
4808;SDS011;2418;49.930;8.606;2022-09-06T06:13:55;3.50;;;3.20;;
4808;SDS011;2418;49.930;8.606;2022-09-06T06:16:23;3.90;;;3.60;;
4808;SDS011;2418;49.930;8.606;2022-09-06T06:18:49;10.57;;;3.30;;
4808;SDS011;2418;49.930;8.606;2022-09-06T06:21:17;3.92;;;3.53;;
4808;SDS011;2418;49.930;8.606;2022-09-06T06:23:44;7.20;;;3.40;;
4808;SDS011;2418;49.930;8.606;2022-09-06T06:26:11;4.85;;;3.00;;
4808;SDS011;2418;49.930;8.606;2022-09-06T06:28:38;5.00;;;3.13;;
4808;SDS011;2418;49.930;8.606;2022-09-06T06:31:05;9.30;;;3.50;;
4808;SDS011;2418;49.930;8.606;2022-09-06T06:33:31;7.20;;;3.50;;
4808;SDS011;2418;49.930;8.606;2022-09-06T06:36:01;4.30;;;3.20;;
4808;SDS011;2418;49.930;8.606;2022-09-06T06:38:37;2.60;;;2.50;;
4808;SDS011;2418;49.930;8.606;2022-09-06T06:41:04;3.30;;;2.80;;
4808;SDS011;2418;49.930;8.606;2022-09-06T06:43:30;6.65;;;2.88;;
4808;SDS011;2418;49.930;8.606;2022-09-06T06:48:27;2.30;;;2.10;;
4808;SDS011;2418;49.930;8.606;2022-09-06T06:50:53;2.57;;;1.97;;
4808;SDS011;2418;49.930;8.606;2022-09-06T06:53:19;5.20;;;2.23;;
4808;SDS011;2418;49.930;8.606;2022-09-06T06:55:45;2.50;;;2.40;;
4808;SDS011;2418;49.930;8.606;2022-09-06T06:58:12;5.63;;;2.10;;
4808;SDS011;2418;49.930;8.606;2022-09-06T07:00:38;2.08;;;1.77;;
4808;SDS011;2418;49.930;8.606;2022-09-06T07:03:05;2.40;;;1.80;;
4808;SDS011;2418;49.930;8.606;2022-09-06T07:05:32;5.78;;;2.00;;
4808;SDS011;2418;49.930;8.606;2022-09-06T07:07:58;2.07;;;1.97;;
4808;SDS011;2418;49.930;8.606;2022-09-06T07:10:24;2.80;;;1.77;;
4808;SDS011;2418;49.930;8.606;2022-09-06T07:12:50;5.93;;;1.90;;
4808;SDS011;2418;49.930;8.606;2022-09-06T07:15:17;2.00;;;1.90;;
4808;SDS011;2418;49.930;8.606;2022-09-06T07:17:43;2.88;;;2.25;;
4808;SDS011;2418;49.930;8.606;2022-09-06T07:20:09;5.50;;;2.08;;
4808;SDS011;2418;49.930;8.606;2022-09-06T07:22:35;2.17;;;1.98;;
4808;SDS011;2418;49.930;8.606;2022-09-06T07:25:02;3.88;;;1.60;;
4808;SDS011;2418;49.930;8.606;2022-09-06T07:27:28;3.67;;;1.80;;
4808;SDS011;2418;49.930;8.606;2022-09-06T07:29:54;5.10;;;1.90;;
4808;SDS011;2418;49.930;8.606;2022-09-06T07:32:20;2.70;;;2.60;;
4808;SDS011;2418;49.930;8.606;2022-09-06T07:34:45;3.90;;;1.80;;
4808;SDS011;2418;49.930;8.606;2022-09-06T07:37:11;2.40;;;2.20;;
4808;SDS011;2418;49.930;8.606;2022-09-06T07:39:37;2.35;;;2.15;;
4808;SDS011;2418;49.930;8.606;2022-09-06T07:42:05;2.40;;;2.40;;
4808;SDS011;2418;49.930;8.606;2022-09-06T07:44:31;3.17;;;2.80;;
4808;SDS011;2418;49.930;8.606;2022-09-06T07:46:57;2.67;;;2.45;;
4808;SDS011;2418;49.930;8.606;2022-09-06T07:49:23;6.00;;;2.75;;
4808;SDS011;2418;49.930;8.606;2022-09-06T07:51:49;3.08;;;2.78;;
4808;SDS011;2418;49.930;8.606;2022-09-06T07:54:15;3.17;;;3.08;;
4808;SDS011;2418;49.930;8.606;2022-09-06T07:56:41;3.10;;;2.70;;
4808;SDS011;2418;49.930;8.606;2022-09-06T07:59:07;6.43;;;2.50;;
4808;SDS011;2418;49.930;8.606;2022-09-06T08:01:33;9.70;;;3.90;;
4808;SDS011;2418;49.930;8.606;2022-09-06T08:06:26;9.85;;;3.63;;
4808;SDS011;2418;49.930;8.606;2022-09-06T08:08:53;5.55;;;3.55;;
4808;SDS011;2418;49.930;8.606;2022-09-06T08:11:19;3.20;;;3.10;;
4808;SDS011;2418;49.930;8.606;2022-09-06T08:13:52;2.97;;;2.78;;
4808;SDS011;2418;49.930;8.606;2022-09-06T08:16:19;10.40;;;3.80;;
4808;SDS011;2418;49.930;8.606;2022-09-06T08:18:49;3.27;;;2.97;;
4808;SDS011;2418;49.930;8.606;2022-09-06T08:21:16;4.80;;;3.28;;
4808;SDS011;2418;49.930;8.606;2022-09-06T08:26:11;4.90;;;3.30;;
4808;SDS011;2418;49.930;8.606;2022-09-06T08:28:37;3.97;;;3.78;;
4808;SDS011;2418;49.930;8.606;2022-09-06T08:31:03;4.30;;;3.75;;
4808;SDS011;2418;49.930;8.606;2022-09-06T08:33:29;4.20;;;3.75;;
4808;SDS011;2418;49.930;8.606;2022-09-06T08:35:56;5.10;;;3.63;;
4808;SDS011;2418;49.930;8.606;2022-09-06T08:38:23;7.22;;;4.53;;
4808;SDS011;2418;49.930;8.606;2022-09-06T08:40:49;7.10;;;4.73;;
4808;SDS011;2418;49.930;8.606;2022-09-06T08:43:19;5.00;;;4.60;;
4808;SDS011;2418;49.930;8.606;2022-09-06T08:45:46;6.63;;;4.30;;
4808;SDS011;2418;49.930;8.606;2022-09-06T08:48:13;10.65;;;4.50;;
4808;SDS011;2418;49.930;8.606;2022-09-06T08:50:40;4.70;;;4.40;;
4808;SDS011;2418;49.930;8.606;2022-09-06T08:53:14;4.30;;;3.90;;
4808;SDS011;2418;49.930;8.606;2022-09-06T08:58:18;3.75;;;3.55;;
4808;SDS011;2418;49.930;8.606;2022-09-06T09:00:53;6.20;;;3.60;;
4808;SDS011;2418;49.930;8.606;2022-09-06T09:03:41;5.50;;;3.70;;
4808;SDS011;2418;49.930;8.606;2022-09-06T09:06:08;4.00;;;3.70;;
4808;SDS011;2418;49.930;8.606;2022-09-06T09:11:01;4.90;;;3.63;;
4808;SDS011;2418;49.930;8.606;2022-09-06T09:16:05;3.20;;;3.08;;
4808;SDS011;2418;49.930;8.606;2022-09-06T09:18:33;4.13;;;3.50;;
4808;SDS011;2418;49.930;8.606;2022-09-06T09:20:59;5.65;;;3.75;;
4808;SDS011;2418;49.930;8.606;2022-09-06T09:23:26;3.45;;;3.20;;
4808;SDS011;2418;49.930;8.606;2022-09-06T09:25:52;16.48;;;3.50;;
4808;SDS011;2418;49.930;8.606;2022-09-06T09:28:21;5.75;;;3.35;;
4808;SDS011;2418;49.930;8.606;2022-09-06T09:30:49;5.15;;;3.00;;
4808;SDS011;2418;49.930;8.606;2022-09-06T09:33:34;4.78;;;3.00;;
4808;SDS011;2418;49.930;8.606;2022-09-06T09:36:12;2.70;;;2.50;;
4808;SDS011;2418;49.930;8.606;2022-09-06T09:38:47;2.70;;;2.50;;
4808;SDS011;2418;49.930;8.606;2022-09-06T09:41:28;3.70;;;2.65;;
4808;SDS011;2418;49.930;8.606;2022-09-06T09:43:55;3.15;;;2.95;;
4808;SDS011;2418;49.930;8.606;2022-09-06T09:49:05;2.77;;;2.67;;
4808;SDS011;2418;49.930;8.606;2022-09-06T09:51:32;14.90;;;3.20;;
4808;SDS011;2418;49.930;8.606;2022-09-06T09:54:00;2.78;;;2.67;;
4808;SDS011;2418;49.930;8.606;2022-09-06T09:58:59;3.00;;;2.70;;
4808;SDS011;2418;49.930;8.606;2022-09-06T10:01:26;2.60;;;2.40;;
4808;SDS011;2418;49.930;8.606;2022-09-06T10:04:06;3.50;;;2.90;;
4808;SDS011;2418;49.930;8.606;2022-09-06T10:06:32;2.90;;;2.70;;
4808;SDS011;2418;49.930;8.606;2022-09-06T10:09:10;2.75;;;2.63;;
4808;SDS011;2418;49.930;8.606;2022-09-06T10:11:38;4.10;;;3.20;;
4808;SDS011;2418;49.930;8.606;2022-09-06T10:14:11;6.05;;;2.97;;
4808;SDS011;2418;49.930;8.606;2022-09-06T10:16:44;3.00;;;2.80;;
4808;SDS011;2418;49.930;8.606;2022-09-06T10:19:24;3.00;;;2.90;;
4808;SDS011;2418;49.930;8.606;2022-09-06T10:21:54;3.42;;;3.13;;
4808;SDS011;2418;49.930;8.606;2022-09-06T10:24:49;2.70;;;2.50;;
4808;SDS011;2418;49.930;8.606;2022-09-06T10:27:10;4.15;;;2.88;;
4808;SDS011;2418;49.930;8.606;2022-09-06T10:29:42;6.13;;;2.90;;
4808;SDS011;2418;49.930;8.606;2022-09-06T10:37:28;5.22;;;3.08;;
4808;SDS011;2418;49.930;8.606;2022-09-06T10:40:13;3.17;;;2.92;;
4808;SDS011;2418;49.930;8.606;2022-09-06T10:42:44;6.63;;;3.15;;
4808;SDS011;2418;49.930;8.606;2022-09-06T10:45:26;3.00;;;2.80;;
4808;SDS011;2418;49.930;8.606;2022-09-06T10:55:48;2.70;;;2.55;;
4808;SDS011;2418;49.930;8.606;2022-09-06T10:58:16;6.25;;;2.78;;
4808;SDS011;2418;49.930;8.606;2022-09-06T11:00:47;2.90;;;2.70;;
4808;SDS011;2418;49.930;8.606;2022-09-06T11:05:44;2.50;;;2.40;;
4808;SDS011;2418;49.930;8.606;2022-09-06T11:11:01;3.30;;;3.10;;
4808;SDS011;2418;49.930;8.606;2022-09-06T11:13:29;2.90;;;2.70;;
4808;SDS011;2418;49.930;8.606;2022-09-06T11:16:05;3.57;;;2.50;;
4808;SDS011;2418;49.930;8.606;2022-09-06T11:24:19;4.10;;;2.70;;
4808;SDS011;2418;49.930;8.606;2022-09-06T11:29:22;3.00;;;2.33;;
4808;SDS011;2418;49.930;8.606;2022-09-06T11:31:53;3.58;;;2.50;;
4808;SDS011;2418;49.930;8.606;2022-09-06T11:36:55;4.65;;;2.67;;
4808;SDS011;2418;49.930;8.606;2022-09-06T11:39:43;6.10;;;2.30;;
4808;SDS011;2418;49.930;8.606;2022-09-06T11:42:21;2.60;;;2.40;;
4808;SDS011;2418;49.930;8.606;2022-09-06T11:47:33;4.65;;;2.25;;
4808;SDS011;2418;49.930;8.606;2022-09-06T11:50:16;3.00;;;2.30;;
4808;SDS011;2418;49.930;8.606;2022-09-06T11:52:49;3.13;;;2.60;;
4808;SDS011;2418;49.930;8.606;2022-09-06T11:55:22;3.17;;;2.30;;
4808;SDS011;2418;49.930;8.606;2022-09-06T11:57:52;4.20;;;2.40;;
4808;SDS011;2418;49.930;8.606;2022-09-06T12:00:19;2.08;;;1.98;;
4808;SDS011;2418;49.930;8.606;2022-09-06T12:02:48;2.75;;;2.33;;
4808;SDS011;2418;49.930;8.606;2022-09-06T12:05:18;3.70;;;2.13;;
4808;SDS011;2418;49.930;8.606;2022-09-06T12:15:51;2.30;;;2.20;;
4808;SDS011;2418;49.930;8.606;2022-09-06T12:18:51;4.00;;;2.65;;
4808;SDS011;2418;49.930;8.606;2022-09-06T12:21:30;2.47;;;2.38;;
4808;SDS011;2418;49.930;8.606;2022-09-06T12:23:56;2.60;;;2.40;;
4808;SDS011;2418;49.930;8.606;2022-09-06T12:29:09;2.33;;;2.13;;
4808;SDS011;2418;49.930;8.606;2022-09-06T12:31:39;5.30;;;2.70;;
4808;SDS011;2418;49.930;8.606;2022-09-06T12:34:08;6.10;;;2.60;;
4808;SDS011;2418;49.930;8.606;2022-09-06T12:36:35;2.80;;;2.38;;
4808;SDS011;2418;49.930;8.606;2022-09-06T12:39:11;2.60;;;2.47;;
4808;SDS011;2418;49.930;8.606;2022-09-06T12:41:40;2.00;;;2.00;;
4808;SDS011;2418;49.930;8.606;2022-09-06T12:44:07;4.10;;;2.40;;
4808;SDS011;2418;49.930;8.606;2022-09-06T12:46:34;2.20;;;2.10;;
4808;SDS011;2418;49.930;8.606;2022-09-06T12:49:03;4.15;;;2.45;;
4808;SDS011;2418;49.930;8.606;2022-09-06T12:51:29;5.90;;;2.40;;
4808;SDS011;2418;49.930;8.606;2022-09-06T12:53:56;2.78;;;2.67;;
4808;SDS011;2418;49.930;8.606;2022-09-06T12:56:23;2.97;;;2.78;;
4808;SDS011;2418;49.930;8.606;2022-09-06T12:58:50;2.70;;;2.50;;
4808;SDS011;2418;49.930;8.606;2022-09-06T13:01:19;2.90;;;2.20;;
4808;SDS011;2418;49.930;8.606;2022-09-06T13:03:55;2.50;;;2.20;;
4808;SDS011;2418;49.930;8.606;2022-09-06T13:06:24;2.40;;;2.30;;
4808;SDS011;2418;49.930;8.606;2022-09-06T13:08:51;5.50;;;1.83;;
4808;SDS011;2418;49.930;8.606;2022-09-06T13:11:28;2.40;;;2.30;;
4808;SDS011;2418;49.930;8.606;2022-09-06T13:13:55;2.30;;;2.20;;
4808;SDS011;2418;49.930;8.606;2022-09-06T13:16:22;2.17;;;2.08;;
4808;SDS011;2418;49.930;8.606;2022-09-06T13:18:49;1.90;;;1.80;;
4808;SDS011;2418;49.930;8.606;2022-09-06T13:21:25;3.22;;;2.10;;
4808;SDS011;2418;49.930;8.606;2022-09-06T13:23:52;4.10;;;2.00;;
4808;SDS011;2418;49.930;8.606;2022-09-06T13:26:31;2.08;;;1.98;;
4808;SDS011;2418;49.930;8.606;2022-09-06T13:29:11;3.17;;;2.20;;
4808;SDS011;2418;49.930;8.606;2022-09-06T13:31:46;2.13;;;1.93;;
4808;SDS011;2418;49.930;8.606;2022-09-06T13:34:23;2.83;;;1.92;;
4808;SDS011;2418;49.930;8.606;2022-09-06T13:36:50;2.00;;;1.90;;
4808;SDS011;2418;49.930;8.606;2022-09-06T13:39:30;1.90;;;1.80;;
4808;SDS011;2418;49.930;8.606;2022-09-06T13:42:03;3.70;;;1.90;;
4808;SDS011;2418;49.930;8.606;2022-09-06T13:44:30;7.10;;;2.40;;
4808;SDS011;2418;49.930;8.606;2022-09-06T13:46:56;1.45;;;1.45;;
4808;SDS011;2418;49.930;8.606;2022-09-06T13:49:23;2.05;;;1.90;;
4808;SDS011;2418;49.930;8.606;2022-09-06T13:51:50;2.40;;;1.80;;
4808;SDS011;2418;49.930;8.606;2022-09-06T13:54:16;4.23;;;1.70;;
4808;SDS011;2418;49.930;8.606;2022-09-06T13:56:42;2.03;;;1.83;;
4808;SDS011;2418;49.930;8.606;2022-09-06T13:59:12;4.53;;;1.80;;
4808;SDS011;2418;49.930;8.606;2022-09-06T14:01:39;4.20;;;2.20;;
4808;SDS011;2418;49.930;8.606;2022-09-06T14:04:06;2.75;;;2.45;;
4808;SDS011;2418;49.930;8.606;2022-09-06T14:06:32;2.20;;;2.00;;
4808;SDS011;2418;49.930;8.606;2022-09-06T14:09:00;3.22;;;2.20;;
4808;SDS011;2418;49.930;8.606;2022-09-06T14:11:26;2.38;;;2.17;;
4808;SDS011;2418;49.930;8.606;2022-09-06T14:13:52;6.10;;;2.17;;
4808;SDS011;2418;49.930;8.606;2022-09-06T14:16:22;12.68;;;2.25;;
4808;SDS011;2418;49.930;8.606;2022-09-06T14:18:48;3.80;;;2.10;;
4808;SDS011;2418;49.930;8.606;2022-09-06T14:21:16;10.00;;;2.45;;
4808;SDS011;2418;49.930;8.606;2022-09-06T14:23:42;2.90;;;2.20;;
4808;SDS011;2418;49.930;8.606;2022-09-06T14:26:08;2.20;;;1.60;;
4808;SDS011;2418;49.930;8.606;2022-09-06T14:28:35;10.93;;;2.40;;
4808;SDS011;2418;49.930;8.606;2022-09-06T14:31:11;7.13;;;1.90;;
4808;SDS011;2418;49.930;8.606;2022-09-06T14:33:38;5.80;;;2.00;;
4808;SDS011;2418;49.930;8.606;2022-09-06T14:36:08;20.20;;;2.60;;
4808;SDS011;2418;49.930;8.606;2022-09-06T14:38:35;3.83;;;1.90;;
4808;SDS011;2418;49.930;8.606;2022-09-06T14:41:02;1.80;;;1.70;;
4808;SDS011;2418;49.930;8.606;2022-09-06T14:43:29;2.90;;;1.95;;
4808;SDS011;2418;49.930;8.606;2022-09-06T14:46:00;1.70;;;1.70;;
4808;SDS011;2418;49.930;8.606;2022-09-06T14:48:30;2.00;;;1.80;;
4808;SDS011;2418;49.930;8.606;2022-09-06T14:50:56;2.20;;;1.50;;
4808;SDS011;2418;49.930;8.606;2022-09-06T14:53:22;7.10;;;2.10;;
4808;SDS011;2418;49.930;8.606;2022-09-06T14:55:48;4.53;;;1.50;;
4808;SDS011;2418;49.930;8.606;2022-09-06T14:58:14;3.90;;;1.63;;
4808;SDS011;2418;49.930;8.606;2022-09-06T15:00:40;2.95;;;1.95;;
4808;SDS011;2418;49.930;8.606;2022-09-06T15:03:09;5.20;;;1.90;;
4808;SDS011;2418;49.930;8.606;2022-09-06T15:05:35;3.70;;;2.00;;
4808;SDS011;2418;49.930;8.606;2022-09-06T15:08:01;3.70;;;1.50;;
4808;SDS011;2418;49.930;8.606;2022-09-06T15:10:28;6.32;;;1.80;;
4808;SDS011;2418;49.930;8.606;2022-09-06T15:12:53;6.93;;;2.40;;
4808;SDS011;2418;49.930;8.606;2022-09-06T15:15:19;4.50;;;1.95;;
4808;SDS011;2418;49.930;8.606;2022-09-06T15:17:47;2.45;;;1.88;;
4808;SDS011;2418;49.930;8.606;2022-09-06T15:20:13;2.30;;;1.58;;
4808;SDS011;2418;49.930;8.606;2022-09-06T15:22:39;3.90;;;2.00;;
4808;SDS011;2418;49.930;8.606;2022-09-06T15:25:05;3.72;;;1.90;;
4808;SDS011;2418;49.930;8.606;2022-09-06T15:27:31;2.08;;;1.98;;
4808;SDS011;2418;49.930;8.606;2022-09-06T15:29:57;2.03;;;1.65;;
4808;SDS011;2418;49.930;8.606;2022-09-06T15:32:23;3.33;;;1.80;;
4808;SDS011;2418;49.930;8.606;2022-09-06T15:34:49;7.55;;;2.00;;
4808;SDS011;2418;49.930;8.606;2022-09-06T15:37:15;2.80;;;1.63;;
4808;SDS011;2418;49.930;8.606;2022-09-06T15:39:41;2.00;;;1.90;;
4808;SDS011;2418;49.930;8.606;2022-09-06T15:42:07;1.70;;;1.70;;
4808;SDS011;2418;49.930;8.606;2022-09-06T15:44:33;3.17;;;2.30;;
4808;SDS011;2418;49.930;8.606;2022-09-06T15:46:59;2.83;;;2.58;;
4808;SDS011;2418;49.930;8.606;2022-09-06T15:49:25;4.32;;;2.38;;
4808;SDS011;2418;49.930;8.606;2022-09-06T15:51:52;4.38;;;2.45;;
4808;SDS011;2418;49.930;8.606;2022-09-06T15:54:18;3.25;;;2.53;;
4808;SDS011;2418;49.930;8.606;2022-09-06T15:57:04;3.75;;;2.20;;
4808;SDS011;2418;49.930;8.606;2022-09-06T15:59:30;4.07;;;2.60;;
4808;SDS011;2418;49.930;8.606;2022-09-06T16:01:57;2.22;;;2.10;;
4808;SDS011;2418;49.930;8.606;2022-09-06T16:04:23;3.45;;;2.70;;
4808;SDS011;2418;49.930;8.606;2022-09-06T16:06:48;2.97;;;2.70;;
4808;SDS011;2418;49.930;8.606;2022-09-06T16:09:14;6.70;;;2.30;;
4808;SDS011;2418;49.930;8.606;2022-09-06T16:11:43;2.60;;;2.30;;
4808;SDS011;2418;49.930;8.606;2022-09-06T16:14:10;4.30;;;2.58;;
4808;SDS011;2418;49.930;8.606;2022-09-06T16:16:37;3.50;;;2.90;;
4808;SDS011;2418;49.930;8.606;2022-09-06T16:19:04;8.30;;;3.30;;
4808;SDS011;2418;49.930;8.606;2022-09-06T16:21:30;9.73;;;3.70;;
4808;SDS011;2418;49.930;8.606;2022-09-06T16:23:57;5.20;;;3.40;;
4808;SDS011;2418;49.930;8.606;2022-09-06T16:26:25;7.53;;;2.70;;
4808;SDS011;2418;49.930;8.606;2022-09-06T16:28:52;7.45;;;2.70;;
4808;SDS011;2418;49.930;8.606;2022-09-06T16:31:18;8.65;;;3.50;;
4808;SDS011;2418;49.930;8.606;2022-09-06T16:33:44;6.50;;;3.37;;
4808;SDS011;2418;49.930;8.606;2022-09-06T16:36:12;8.05;;;3.00;;
4808;SDS011;2418;49.930;8.606;2022-09-06T16:38:39;5.85;;;2.90;;
4808;SDS011;2418;49.930;8.606;2022-09-06T16:43:34;7.63;;;2.60;;